Time;durP1;ratioP1;P1;durP2;ratioP2;P2;SDS_P1;SDS_P2;PMS_P1;PMS_P2;Temp;Humidity;BMP_temperature;BMP_pressure;BME280_temperature;BME280_humidity;BME280_pressure;Samples;Min_cycle;Max_cycle;Signal;HPM_P1;HPM_P2
2023/05/23 00:00:22;;;;;;;6.10;1.92;;;25.70;41.90;;;;;;4070569;29;20503;-44
2023/05/23 00:02:45;;;;;;;3.78;1.80;;;25.80;41.80;;;;;;4084590;28;20079;-47
2023/05/23 00:05:08;;;;;;;2.60;1.15;;;26.00;41.70;;;;;;4080844;29;20364;-44
2023/05/23 00:07:31;;;;;;;4.72;1.48;;;26.10;41.60;;;;;;4085966;29;20407;-43
2023/05/23 00:09:53;;;;;;;2.90;1.13;;;26.30;41.50;;;;;;4075123;29;20205;-51
2023/05/23 00:12:16;;;;;;;3.78;1.40;;;26.40;41.30;;;;;;4075509;29;20047;-48
2023/05/23 00:14:39;;;;;;;4.70;1.50;;;26.10;41.30;;;;;;4077739;28;20716;-43
2023/05/23 00:17:01;;;;;;;1.70;1.20;;;25.60;41.90;;;;;;4071018;29;20130;-44
2023/05/23 00:19:24;;;;;;;3.17;1.35;;;25.20;42.40;;;;;;4076046;28;20416;-46
2023/05/23 00:21:48;;;;;;;2.60;1.20;;;24.80;42.90;;;;;;4070681;28;20532;-43
2023/05/23 00:24:10;;;;;;;2.10;1.20;;;24.40;43.50;;;;;;4083637;28;20042;-42
2023/05/23 00:26:33;;;;;;;2.47;0.82;;;24.20;43.80;;;;;;4081333;28;20066;-44
2023/05/23 00:28:56;;;;;;;1.90;1.05;;;23.90;44.30;;;;;;4076253;29;20232;-43
2023/05/23 00:31:19;;;;;;;2.67;1.20;;;23.70;44.20;;;;;;4077779;28;20046;-42
2023/05/23 00:33:41;;;;;;;1.63;1.02;;;23.50;44.90;;;;;;4081628;28;20039;-40
2023/05/23 00:36:03;;;;;;;1.33;1.10;;;23.30;45.40;;;;;;4080188;28;20071;-41
2023/05/23 00:38:27;;;;;;;2.40;1.23;;;23.20;45.60;;;;;;4084933;28;20050;-42
2023/05/23 00:40:49;;;;;;;3.88;1.05;;;23.10;45.30;;;;;;4073080;29;20142;-42
2023/05/23 00:43:12;;;;;;;5.95;1.65;;;22.90;45.70;;;;;;4076683;29;20374;-45
2023/05/23 00:45:34;;;;;;;4.43;1.42;;;22.80;45.90;;;;;;4077134;28;20439;-39
2023/05/23 00:47:58;;;;;;;2.33;1.10;;;22.70;46.20;;;;;;4075638;28;20319;-45
2023/05/23 00:50:21;;;;;;;1.67;0.98;;;22.50;46.40;;;;;;4075542;29;20095;-51
2023/05/23 00:52:46;;;;;;;1.02;0.68;;;22.40;46.60;;;;;;4074523;29;20050;-45
2023/05/23 00:55:09;;;;;;;2.50;1.10;;;22.30;46.50;;;;;;4078090;28;20047;-45
2023/05/23 00:57:38;;;;;;;1.35;1.00;;;22.20;46.60;;;;;;4076094;29;20099;-47
2023/05/23 01:00:01;;;;;;;1.65;0.93;;;22.10;47.00;;;;;;4080785;28;20041;-48
2023/05/23 01:02:23;;;;;;;3.57;0.87;;;22.00;47.10;;;;;;4085692;29;20047;-51
2023/05/23 01:04:53;;;;;;;1.13;0.73;;;22.00;47.40;;;;;;4078266;29;20055;-45
2023/05/23 01:07:15;;;;;;;1.98;0.70;;;21.80;47.60;;;;;;4080535;29;20046;-44
2023/05/23 01:09:37;;;;;;;1.02;0.70;;;21.80;47.60;;;;;;4083289;28;20042;-44
2023/05/23 01:12:37;;;;;;;2.60;0.80;;;21.70;47.60;;;;;;4084454;29;20043;-42
2023/05/23 01:15:12;;;;;;;1.80;0.80;;;21.60;47.80;;;;;;4078864;29;20032;-48
2023/05/23 01:18:06;;;;;;;0.82;0.60;;;21.50;47.80;;;;;;4077563;29;20055;-47
2023/05/23 01:20:35;;;;;;;1.52;0.90;;;21.40;48.10;;;;;;4082049;28;20035;-48
2023/05/23 01:23:01;;;;;;;1.17;0.70;;;21.30;48.50;;;;;;4077459;29;20122;-47
2023/05/23 01:25:40;;;;;;;1.10;0.70;;;21.20;48.90;;;;;;4075147;29;20072;-46
2023/05/23 01:28:07;;;;;;;2.20;0.73;;;21.20;48.40;;;;;;4080763;29;20043;-44
2023/05/23 01:30:34;;;;;;;2.33;0.98;;;21.10;49.00;;;;;;4082206;29;20126;-41
2023/05/23 01:32:58;;;;;;;1.15;0.50;;;21.00;48.80;;;;;;4078993;29;20492;-50
2023/05/23 01:35:28;;;;;;;1.35;0.82;;;21.00;49.00;;;;;;4081019;29;20039;-43
2023/05/23 01:37:50;;;;;;;0.93;0.52;;;20.90;49.30;;;;;;4081596;29;20052;-42
2023/05/23 01:40:13;;;;;;;1.88;0.80;;;20.90;49.60;;;;;;4077885;29;20040;-46
2023/05/23 01:42:35;;;;;;;2.17;0.50;;;20.80;49.70;;;;;;4080723;28;20500;-44
2023/05/23 01:44:58;;;;;;;2.45;0.65;;;20.80;49.80;;;;;;4076122;29;20149;-46
2023/05/23 01:47:21;;;;;;;0.88;0.57;;;20.70;49.90;;;;;;4107932;23;20051;-55
2023/05/23 01:49:45;;;;;;;0.52;0.50;;;20.60;50.00;;;;;;4096939;28;20061;-55
2023/05/23 01:52:12;;;;;;;1.00;0.80;;;20.60;50.50;;;;;;4095850;28;20517;-51
2023/05/23 01:54:35;;;;;;;2.05;0.50;;;20.60;50.20;;;;;;4091818;28;20087;-50
2023/05/23 01:56:58;;;;;;;1.55;0.60;;;20.50;50.40;;;;;;4092946;28;20487;-51
2023/05/23 01:59:21;;;;;;;2.45;0.80;;;20.50;50.50;;;;;;4099692;28;20411;-48
2023/05/23 02:01:43;;;;;;;1.02;0.60;;;20.40;50.50;;;;;;4095397;28;20450;-52
2023/05/23 02:04:06;;;;;;;2.35;0.82;;;20.40;50.80;;;;;;4096751;28;20162;-56
2023/05/23 02:06:28;;;;;;;2.30;0.98;;;20.40;50.70;;;;;;4095542;28;20384;-55
2023/05/23 02:08:50;;;;;;;3.33;1.20;;;20.40;50.70;;;;;;4098499;28;20062;-55
2023/05/23 02:11:13;;;;;;;2.20;0.70;;;20.30;50.80;;;;;;4095311;28;20098;-50
2023/05/23 02:13:35;;;;;;;3.83;1.27;;;20.30;50.70;;;;;;4096107;28;20039;-50
2023/05/23 02:15:58;;;;;;;3.45;1.30;;;20.20;50.80;;;;;;4095699;28;20067;-58
2023/05/23 02:18:21;;;;;;;3.45;1.40;;;20.20;50.90;;;;;;4094343;28;20521;-49
2023/05/23 02:20:43;;;;;;;2.30;1.42;;;20.10;50.70;;;;;;4096186;28;20039;-47
2023/05/23 02:23:06;;;;;;;1.45;1.02;;;20.10;51.00;;;;;;4093323;28;20407;-55
2023/05/23 02:25:29;;;;;;;2.45;1.45;;;20.10;51.20;;;;;;4094135;28;20507;-51
2023/05/23 02:27:51;;;;;;;2.35;1.05;;;20.10;51.30;;;;;;4095935;28;20144;-53
2023/05/23 02:30:14;;;;;;;1.05;0.80;;;20.10;51.50;;;;;;4095792;28;20350;-58
2023/05/23 02:32:36;;;;;;;2.75;1.10;;;20.00;51.60;;;;;;4096233;28;20051;-54
2023/05/23 02:34:59;;;;;;;3.10;1.30;;;20.00;51.70;;;;;;4094530;28;21273;-58
2023/05/23 02:37:21;;;;;;;2.55;1.45;;;20.00;51.90;;;;;;4094525;28;20122;-53
2023/05/23 02:39:44;;;;;;;1.45;1.15;;;20.00;51.30;;;;;;4096110;28;20709;-57
2023/05/23 02:42:06;;;;;;;3.08;1.42;;;20.00;51.30;;;;;;4095872;28;20043;-53
2023/05/23 02:44:29;;;;;;;3.58;1.35;;;19.90;51.20;;;;;;4096052;28;20073;-55
2023/05/23 02:46:51;;;;;;;2.92;1.60;;;19.90;51.00;;;;;;4095052;28;20134;-53
2023/05/23 02:49:14;;;;;;;2.85;1.80;;;19.80;50.90;;;;;;4093404;28;20102;-54
2023/05/23 02:51:36;;;;;;;3.55;1.70;;;19.80;50.90;;;;;;4095406;28;20050;-55
2023/05/23 02:53:58;;;;;;;2.70;1.40;;;19.70;50.70;;;;;;4093200;28;20078;-59
2023/05/23 02:56:21;;;;;;;3.95;1.90;;;19.70;50.80;;;;;;4094431;28;20487;-50
2023/05/23 02:58:44;;;;;;;4.22;1.88;;;19.60;50.80;;;;;;4092921;28;20118;-55
2023/05/23 03:01:07;;;;;;;3.03;1.77;;;19.60;51.30;;;;;;4090855;28;20071;-51
2023/05/23 03:03:32;;;;;;;7.10;2.17;;;19.60;52.60;;;;;;4094166;28;20039;-55
2023/05/23 03:05:55;;;;;;;6.80;1.67;;;19.70;52.40;;;;;;4091394;28;20046;-55
2023/05/23 03:08:17;;;;;;;7.78;1.80;;;19.70;53.40;;;;;;4093110;28;20126;-57
2023/05/23 03:10:39;;;;;;;2.10;1.40;;;19.70;52.80;;;;;;4095997;28;20043;-54
2023/05/23 03:13:02;;;;;;;6.63;1.83;;;19.70;52.80;;;;;;4092549;28;20126;-53
2023/05/23 03:15:24;;;;;;;4.28;1.88;;;19.70;52.80;;;;;;4094254;28;20078;-58
2023/05/23 03:17:47;;;;;;;6.15;1.60;;;19.70;52.80;;;;;;4099200;28;20047;-50
2023/05/23 03:20:10;;;;;;;7.15;1.83;;;19.70;53.10;;;;;;4094675;28;20047;-50
2023/05/23 03:22:32;;;;;;;12.13;2.60;;;19.70;53.50;;;;;;4098052;28;20040;-51
2023/05/23 03:24:55;;;;;;;6.75;1.13;;;19.80;53.70;;;;;;4092150;28;20718;-49
2023/05/23 03:27:17;;;;;;;8.38;1.60;;;19.80;53.70;;;;;;4093681;28;20455;-50
2023/05/23 03:29:40;;;;;;;8.23;1.30;;;19.90;53.80;;;;;;4095615;28;20038;-52
2023/05/23 03:32:02;;;;;;;3.45;1.10;;;19.90;53.90;;;;;;4096329;28;20077;-48
2023/05/23 03:34:25;;;;;;;10.15;1.25;;;19.90;53.90;;;;;;4093838;28;20043;-49
2023/05/23 03:36:47;;;;;;;1.73;0.90;;;20.00;53.80;;;;;;4092969;28;20055;-50
2023/05/23 03:39:10;;;;;;;3.55;1.02;;;20.00;53.80;;;;;;4094301;28;20405;-47
2023/05/23 03:41:32;;;;;;;3.65;1.30;;;20.10;53.70;;;;;;4092930;28;20099;-50
2023/05/23 03:43:55;;;;;;;1.35;0.77;;;20.10;53.70;;;;;;4093777;28;20928;-53
2023/05/23 03:46:17;;;;;;;2.65;0.80;;;20.20;53.70;;;;;;4095774;28;20071;-48
2023/05/23 03:48:40;;;;;;;2.63;1.02;;;20.20;53.60;;;;;;4093135;28;20416;-49
2023/05/23 03:51:02;;;;;;;2.40;0.75;;;20.30;53.50;;;;;;4091998;28;20043;-50
2023/05/23 03:53:25;;;;;;;2.03;0.85;;;20.30;53.60;;;;;;4078712;28;20039;-53
2023/05/23 03:55:47;;;;;;;2.88;0.90;;;20.30;53.50;;;;;;4091951;28;20134;-52
2023/05/23 03:58:10;;;;;;;3.17;0.93;;;20.40;53.50;;;;;;4092289;28;20396;-50
2023/05/23 04:00:33;;;;;;;1.08;0.80;;;20.40;53.50;;;;;;4092862;28;20066;-53
2023/05/23 04:02:56;;;;;;;1.00;0.60;;;20.40;53.60;;;;;;4093399;28;20047;-53
2023/05/23 04:05:18;;;;;;;3.33;0.90;;;20.50;53.50;;;;;;4092257;28;20027;-51
2023/05/23 04:07:41;;;;;;;2.90;0.70;;;20.60;53.60;;;;;;4095218;28;20046;-54
2023/05/23 04:10:04;;;;;;;1.15;0.70;;;20.60;53.50;;;;;;4091272;28;20045;-51
2023/05/23 04:12:29;;;;;;;1.30;0.60;;;20.70;53.60;;;;;;4088853;28;20047;-53
2023/05/23 04:14:51;;;;;;;1.45;0.60;;;20.70;53.40;;;;;;4090766;28;20289;-50
2023/05/23 04:17:14;;;;;;;1.95;0.50;;;20.80;53.30;;;;;;4098381;28;20491;-52
2023/05/23 04:19:36;;;;;;;2.28;0.68;;;20.80;53.20;;;;;;4089844;28;20080;-50
2023/05/23 04:21:59;;;;;;;1.63;0.52;;;20.90;53.10;;;;;;4095292;28;20047;-53
2023/05/23 04:24:21;;;;;;;1.10;0.80;;;21.00;53.00;;;;;;4096282;28;20408;-50
2023/05/23 04:26:43;;;;;;;0.47;0.47;;;21.00;52.90;;;;;;4093424;28;20403;-47
2023/05/23 04:29:06;;;;;;;2.28;1.00;;;21.10;52.90;;;;;;4091980;28;20459;-48
2023/05/23 04:31:28;;;;;;;1.33;0.50;;;21.20;52.90;;;;;;4094032;28;20487;-52
2023/05/23 04:33:51;;;;;;;1.40;0.52;;;21.20;52.70;;;;;;4099461;28;20458;-60
2023/05/23 04:36:13;;;;;;;1.80;0.57;;;21.30;52.50;;;;;;4098762;28;20494;-61
2023/05/23 04:38:37;;;;;;;1.23;0.63;;;21.30;52.30;;;;;;4097646;28;20806;-51
2023/05/23 04:40:59;;;;;;;4.20;0.77;;;21.40;52.10;;;;;;4092626;28;20042;-55
2023/05/23 04:43:25;;;;;;;1.65;0.90;;;21.40;51.90;;;;;;4096925;28;20129;-51
2023/05/23 04:45:53;;;;;;;1.95;0.90;;;21.40;52.20;;;;;;4091867;28;20050;-51
2023/05/23 04:48:20;;;;;;;4.45;0.80;;;21.40;52.10;;;;;;4095655;28;20058;-50
2023/05/23 04:50:46;;;;;;;2.40;0.70;;;21.40;52.20;;;;;;4095606;28;20649;-53
2023/05/23 04:53:08;;;;;;;2.78;1.30;;;21.50;52.20;;;;;;4096737;28;20031;-55
2023/05/23 04:55:31;;;;;;;2.42;0.80;;;21.50;52.20;;;;;;4093965;28;20040;-56
2023/05/23 04:57:53;;;;;;;4.00;1.45;;;21.50;52.20;;;;;;4095123;28;20055;-54
2023/05/23 05:00:16;;;;;;;2.95;1.10;;;21.60;52.20;;;;;;4082488;28;20039;-51
2023/05/23 05:02:43;;;;;;;10.60;1.30;;;21.50;52.20;;;;;;4087048;28;22075;-51
2023/05/23 05:05:06;;;;;;;3.50;1.27;;;21.60;52.10;;;;;;4095740;28;20039;-48
2023/05/23 05:07:29;;;;;;;3.53;1.25;;;21.60;52.10;;;;;;4095538;28;20036;-48
2023/05/23 05:09:51;;;;;;;4.40;1.27;;;21.60;51.90;;;;;;4096624;28;20120;-50
2023/05/23 05:12:13;;;;;;;3.72;1.20;;;21.60;52.00;;;;;;4096256;28;20057;-55
2023/05/23 05:14:36;;;;;;;2.25;1.20;;;21.60;52.10;;;;;;4095828;28;20891;-49
2023/05/23 05:16:58;;;;;;;3.63;1.08;;;21.70;52.10;;;;;;4083066;28;20043;-52
2023/05/23 05:19:21;;;;;;;2.63;1.10;;;21.70;52.10;;;;;;4094858;28;20047;-48
2023/05/23 05:21:43;;;;;;;2.10;0.90;;;21.70;52.20;;;;;;4099096;28;20039;-50
2023/05/23 05:24:08;;;;;;;2.95;1.40;;;21.70;52.20;;;;;;4090310;28;20054;-51
2023/05/23 05:26:30;;;;;;;1.73;0.98;;;21.70;52.10;;;;;;4096587;28;20381;-55
2023/05/23 05:28:53;;;;;;;1.60;0.93;;;21.70;52.20;;;;;;4093148;28;20121;-55
2023/05/23 05:31:15;;;;;;;4.38;1.10;;;21.70;52.30;;;;;;4093003;28;20035;-57
2023/05/23 05:33:38;;;;;;;3.47;1.48;;;21.80;52.40;;;;;;4094213;28;20043;-53
2023/05/23 05:36:01;;;;;;;2.25;0.95;;;21.70;52.50;;;;;;4097900;28;20469;-52
2023/05/23 05:38:23;;;;;;;2.47;1.05;;;21.70;52.40;;;;;;4081597;28;20118;-54
2023/05/23 05:40:46;;;;;;;2.45;1.30;;;21.70;52.50;;;;;;4097978;28;20033;-56
2023/05/23 05:43:09;;;;;;;3.60;1.25;;;21.70;52.60;;;;;;4082788;28;20499;-57
2023/05/23 05:45:31;;;;;;;2.42;1.00;;;21.70;52.70;;;;;;4080526;28;20071;-52
2023/05/23 05:47:53;;;;;;;2.03;0.98;;;21.70;52.90;;;;;;4094106;28;20063;-56
2023/05/23 05:50:16;;;;;;;2.17;0.98;;;21.70;52.90;;;;;;4092743;28;20039;-49
2023/05/23 05:52:38;;;;;;;1.95;1.17;;;21.70;52.90;;;;;;4091851;28;20463;-51
2023/05/23 05:55:01;;;;;;;2.65;1.25;;;21.60;52.90;;;;;;4099740;28;20039;-52
2023/05/23 05:57:23;;;;;;;3.33;1.27;;;21.60;53.00;;;;;;4094060;28;20074;-55
2023/05/23 05:59:45;;;;;;;1.55;0.80;;;21.60;53.00;;;;;;4092555;28;20065;-55
2023/05/23 06:02:08;;;;;;;2.30;1.17;;;21.60;53.10;;;;;;4091708;28;20519;-50
2023/05/23 06:04:31;;;;;;;3.65;1.30;;;21.60;53.10;;;;;;4094518;28;20443;-53
2023/05/23 06:06:53;;;;;;;3.28;0.88;;;21.60;53.20;;;;;;4092550;28;20035;-50
2023/05/23 06:09:16;;;;;;;2.80;1.38;;;21.50;53.30;;;;;;4091971;28;20046;-51
2023/05/23 06:11:39;;;;;;;6.45;1.35;;;21.50;53.40;;;;;;4093592;28;20035;-51
2023/05/23 06:14:02;;;;;;;4.07;1.40;;;21.50;53.50;;;;;;4093530;28;20031;-60
2023/05/23 06:16:24;;;;;;;4.30;1.40;;;21.50;53.60;;;;;;4096345;28;20150;-59
2023/05/23 06:18:47;;;;;;;3.83;1.50;;;21.50;53.50;;;;;;4095154;28;20057;-58
2023/05/23 06:21:09;;;;;;;2.17;1.05;;;21.50;54.40;;;;;;4097296;28;20086;-60
2023/05/23 06:23:32;;;;;;;2.85;1.48;;;21.60;54.00;;;;;;4095793;28;20039;-57
2023/05/23 06:25:54;;;;;;;3.17;1.80;;;21.70;54.70;;;;;;4097296;28;20046;-59
2023/05/23 06:28:17;;;;;;;2.92;2.05;;;21.80;54.20;;;;;;4094105;28;20480;-59
2023/05/23 06:30:39;;;;;;;5.50;2.80;;;21.90;54.10;;;;;;4094927;28;20042;-59
2023/05/23 06:33:02;;;;;;;5.72;3.28;;;22.00;53.50;;;;;;4095842;28;20082;-59
2023/05/23 06:35:24;;;;;;;6.57;3.70;;;22.10;52.60;;;;;;4100870;28;20047;-58
2023/05/23 06:37:47;;;;;;;5.50;4.32;;;22.00;52.50;;;;;;4096395;28;20086;-57
2023/05/23 06:40:10;;;;;;;5.13;4.63;;;21.90;52.40;;;;;;4096560;28;20518;-60
2023/05/23 06:42:32;;;;;;;6.88;5.30;;;21.90;52.60;;;;;;4095454;28;20554;-59
2023/05/23 06:44:55;;;;;;;6.50;5.90;;;21.80;52.80;;;;;;4093858;28;20035;-58
2023/05/23 06:47:17;;;;;;;6.97;5.85;;;21.70;52.90;;;;;;4086610;28;20342;-56
2023/05/23 06:49:42;;;;;;;7.10;6.40;;;21.60;53.10;;;;;;4094459;28;20051;-56
2023/05/23 06:52:04;;;;;;;20.80;7.40;;;21.50;53.10;;;;;;4095039;28;20408;-58
2023/05/23 06:54:27;;;;;;;8.02;6.55;;;21.50;53.60;;;;;;4082293;28;20082;-58
2023/05/23 06:56:49;;;;;;;7.47;6.47;;;21.40;53.00;;;;;;4090221;28;20099;-58
2023/05/23 06:59:12;;;;;;;6.97;5.93;;;21.30;53.10;;;;;;4094843;28;20074;-57
2023/05/23 07:01:34;;;;;;;7.13;6.43;;;21.30;53.20;;;;;;4097926;28;20075;-57
2023/05/23 07:03:57;;;;;;;5.80;5.20;;;21.20;53.30;;;;;;4095080;28;21090;-58
2023/05/23 07:06:19;;;;;;;6.80;6.07;;;21.10;53.50;;;;;;4096956;28;20039;-59
2023/05/23 07:08:42;;;;;;;5.90;5.30;;;21.00;53.60;;;;;;4097045;28;20051;-57
2023/05/23 07:11:08;;;;;;;8.30;6.00;;;21.00;53.80;;;;;;4096916;28;20385;-56
2023/05/23 07:13:30;;;;;;;5.70;4.88;;;20.90;53.90;;;;;;4089475;28;20074;-58
2023/05/23 07:15:52;;;;;;;5.25;4.53;;;20.90;54.20;;;;;;4101023;28;20066;-59
2023/05/23 07:18:15;;;;;;;5.30;4.80;;;20.80;54.20;;;;;;4095740;28;20107;-59
2023/05/23 07:20:37;;;;;;;6.97;5.00;;;20.70;54.90;;;;;;4092915;28;20053;-59
2023/05/23 07:23:00;;;;;;;6.93;4.45;;;20.70;54.50;;;;;;4077763;28;20083;-60
2023/05/23 07:25:22;;;;;;;6.85;4.45;;;20.70;54.60;;;;;;4093620;28;20039;-60
2023/05/23 07:27:45;;;;;;;7.57;4.25;;;20.60;54.90;;;;;;4094675;28;20479;-59
2023/05/23 07:30:08;;;;;;;7.60;4.13;;;20.60;55.30;;;;;;4095061;28;20054;-59
2023/05/23 07:32:31;;;;;;;5.18;3.58;;;20.50;55.40;;;;;;4096966;28;20114;-60
2023/05/23 07:34:53;;;;;;;8.48;4.78;;;20.50;55.70;;;;;;4097187;28;20046;-58
2023/05/23 07:37:16;;;;;;;6.70;3.50;;;20.50;56.00;;;;;;4096334;28;20376;-57
2023/05/23 07:39:38;;;;;;;6.18;3.28;;;20.40;56.40;;;;;;4095048;28;20043;-59
2023/05/23 07:42:00;;;;;;;10.63;3.70;;;20.40;56.60;;;;;;4093638;28;20041;-59
2023/05/23 07:44:23;;;;;;;6.35;3.22;;;20.50;56.80;;;;;;4094296;28;20098;-61
2023/05/23 07:46:45;;;;;;;5.38;3.10;;;20.40;56.80;;;;;;4091540;28;20027;-62
2023/05/23 07:49:08;;;;;;;6.47;3.05;;;20.40;57.10;;;;;;4094000;28;20047;-62
2023/05/23 07:51:31;;;;;;;12.88;3.05;;;20.40;57.50;;;;;;4096170;28;20074;-60
2023/05/23 07:53:53;;;;;;;7.47;3.00;;;20.40;57.50;;;;;;4090302;28;20470;-61
2023/05/23 07:56:16;;;;;;;9.85;2.83;;;20.40;57.50;;;;;;4088903;28;20043;-59
2023/05/23 07:58:38;;;;;;;9.65;3.05;;;20.40;57.50;;;;;;4090473;28;20502;-61
2023/05/23 08:01:02;;;;;;;7.47;2.92;;;20.40;57.60;;;;;;4090621;28;20042;-63
2023/05/23 08:03:24;;;;;;;7.07;2.90;;;20.40;57.60;;;;;;4090705;28;20101;-64
2023/05/23 08:05:50;;;;;;;3.88;2.30;;;20.40;57.40;;;;;;4085709;28;20557;-63
2023/05/23 08:08:12;;;;;;;4.25;2.40;;;20.40;57.40;;;;;;4089285;28;20467;-63
2023/05/23 08:10:35;;;;;;;3.40;2.20;;;20.40;57.30;;;;;;4074999;28;20143;-60
2023/05/23 08:12:59;;;;;;;5.65;2.53;;;20.40;57.40;;;;;;4090407;28;20118;-59
2023/05/23 08:15:23;;;;;;;4.03;2.05;;;20.30;57.30;;;;;;4092781;28;20126;-60
2023/05/23 08:17:45;;;;;;;6.15;2.15;;;20.30;57.30;;;;;;4090876;28;20510;-60
2023/05/23 08:20:09;;;;;;;4.40;1.98;;;20.30;57.30;;;;;;4091093;28;20031;-60
2023/05/23 08:22:31;;;;;;;4.32;1.92;;;20.30;57.30;;;;;;4089962;28;20062;-58
2023/05/23 08:24:53;;;;;;;3.38;2.00;;;20.30;57.60;;;;;;4089280;28;20511;-59
2023/05/23 08:27:16;;;;;;;4.05;2.10;;;20.30;57.60;;;;;;4090391;28;20047;-58
2023/05/23 08:29:38;;;;;;;4.78;2.00;;;20.20;57.60;;;;;;4089013;28;20044;-57
2023/05/23 08:32:01;;;;;;;4.40;1.90;;;20.30;57.60;;;;;;4091666;28;20039;-56
2023/05/23 08:34:23;;;;;;;4.20;1.90;;;20.30;57.60;;;;;;4088830;28;20043;-46
2023/05/23 08:36:46;;;;;;;13.40;2.83;;;20.20;57.90;;;;;;4089562;28;20035;-48
2023/05/23 08:39:08;;;;;;;14.95;2.65;;;20.20;58.60;;;;;;4090720;28;20058;-55
2023/05/23 08:41:31;;;;;;;26.98;2.90;;;20.20;57.90;;;;;;4087428;28;20042;-51
2023/05/23 08:43:53;;;;;;;8.65;2.38;;;20.10;57.90;;;;;;4096563;28;20039;-50
2023/05/23 08:46:16;;;;;;;4.53;2.50;;;20.10;57.70;;;;;;4083422;28;20035;-51
2023/05/23 08:48:40;;;;;;;3.72;2.38;;;20.10;57.50;;;;;;4095899;28;20142;-48
2023/05/23 08:51:03;;;;;;;6.32;2.35;;;20.00;57.30;;;;;;4094753;28;20419;-50
2023/05/23 08:53:28;;;;;;;8.25;3.10;;;20.00;57.30;;;;;;4092806;28;20118;-47
2023/05/23 08:55:50;;;;;;;4.93;2.53;;;20.00;57.30;;;;;;4093103;28;20073;-50
2023/05/23 08:58:14;;;;;;;7.80;3.15;;;19.90;57.30;;;;;;4079578;28;20065;-46
2023/05/23 09:00:37;;;;;;;6.18;2.97;;;19.90;57.30;;;;;;4091246;28;20527;-50
2023/05/23 09:02:59;;;;;;;5.05;2.50;;;19.80;57.30;;;;;;4092394;28;20130;-51
2023/05/23 09:05:22;;;;;;;5.70;2.60;;;19.80;57.40;;;;;;4083793;28;20142;-50
2023/05/23 09:07:47;;;;;;;5.82;3.08;;;19.80;57.40;;;;;;4088205;28;20039;-48
2023/05/23 09:10:11;;;;;;;5.38;2.60;;;19.70;57.40;;;;;;4080206;28;20430;-48
2023/05/23 09:12:36;;;;;;;6.25;3.17;;;19.70;57.50;;;;;;4088488;28;20622;-49
2023/05/23 09:14:58;;;;;;;5.15;3.03;;;19.70;57.50;;;;;;4088847;28;20659;-52
2023/05/23 09:17:21;;;;;;;5.93;3.25;;;19.60;57.50;;;;;;4089642;28;20051;-48
2023/05/23 09:19:45;;;;;;;6.72;3.15;;;19.60;57.50;;;;;;4071112;28;20023;-49
2023/05/23 09:22:07;;;;;;;5.63;3.10;;;19.60;57.60;;;;;;4097136;28;20038;-46
2023/05/23 09:24:36;;;;;;;5.45;3.13;;;19.50;57.60;;;;;;4102186;28;20510;-47
2023/05/23 09:27:00;;;;;;;5.50;3.00;;;19.50;57.60;;;;;;4091875;28;20475;-48
2023/05/23 09:29:22;;;;;;;6.57;3.17;;;19.40;57.60;;;;;;4093170;28;20570;-48
2023/05/23 09:31:45;;;;;;;5.57;3.38;;;19.40;57.70;;;;;;4090374;28;20082;-46
2023/05/23 09:34:09;;;;;;;5.35;2.85;;;19.40;57.70;;;;;;4095804;28;20071;-47
2023/05/23 09:36:33;;;;;;;5.63;3.28;;;19.30;57.70;;;;;;4096478;28;20407;-47
2023/05/23 09:38:56;;;;;;;4.90;2.97;;;19.30;57.80;;;;;;4094675;28;20700;-48
2023/05/23 09:41:20;;;;;;;5.93;3.28;;;19.30;57.80;;;;;;4092769;28;20039;-50
2023/05/23 09:43:53;;;;;;;5.80;3.22;;;19.30;57.80;;;;;;4095167;28;20416;-46
2023/05/23 09:46:16;;;;;;;5.45;3.30;;;19.30;57.90;;;;;;4093796;28;20094;-50
2023/05/23 09:48:38;;;;;;;6.27;3.30;;;19.20;57.90;;;;;;4009683;28;2344132;-52
2023/05/23 09:51:04;;;;;;;6.55;3.58;;;19.20;58.00;;;;;;4095053;28;20090;-49
2023/05/23 09:53:27;;;;;;;5.32;3.03;;;19.20;58.00;;;;;;4090455;28;20042;-51
2023/05/23 09:55:51;;;;;;;6.00;3.47;;;19.20;58.00;;;;;;4093742;28;20443;-51
2023/05/23 09:58:14;;;;;;;5.43;3.60;;;19.10;58.00;;;;;;4093481;28;20062;-50
2023/05/23 10:00:38;;;;;;;6.18;3.28;;;19.10;58.10;;;;;;4094378;28;20063;-50
2023/05/23 10:03:16;;;;;;;6.93;3.20;;;19.10;58.10;;;;;;4096357;28;20462;-50
2023/05/23 10:05:44;;;;;;;5.70;3.35;;;19.10;58.20;;;;;;4094538;28;20050;-52
2023/05/23 10:08:32;;;;;;;6.22;3.60;;;19.00;58.20;;;;;;4080588;28;20031;-53
2023/05/23 10:11:17;;;;;;;8.15;3.83;;;19.00;58.20;;;;;;4094644;28;20031;-51
2023/05/23 10:13:52;;;;;;;5.80;3.20;;;19.00;58.30;;;;;;4090422;28;20050;-55
2023/05/23 10:16:49;;;;;;;6.32;3.50;;;18.90;58.20;;;;;;4097637;28;20043;-50
2023/05/23 10:19:26;;;;;;;6.65;3.78;;;18.90;58.30;;;;;;4092186;28;20062;-50
2023/05/23 10:22:00;;;;;;;7.30;4.25;;;18.90;58.30;;;;;;4080942;28;20461;-53
2023/05/23 10:24:26;;;;;;;8.20;4.20;;;18.90;58.40;;;;;;4095457;28;20041;-51
2023/05/23 10:26:49;;;;;;;7.22;4.22;;;18.80;58.40;;;;;;4090280;28;20480;-51
2023/05/23 10:29:11;;;;;;;7.22;4.35;;;18.80;58.40;;;;;;4093950;28;20082;-47
2023/05/23 10:31:35;;;;;;;7.15;4.22;;;18.80;58.40;;;;;;4095549;28;20539;-50
2023/05/23 10:34:20;;;;;;;;;;;18.80;58.50;;;;;;4096380;28;20118;-50
2023/05/23 10:36:55;;;;;;;10.63;4.88;;;18.70;58.40;;;;;;4080656;28;19922;-50
2023/05/23 10:39:53;;;;;;;7.85;4.70;;;18.70;58.40;;;;;;4095160;28;20047;-48
2023/05/23 10:42:38;;;;;;;9.13;5.00;;;18.70;58.50;;;;;;4094785;28;20387;-47
2023/05/23 10:45:20;;;;;;;8.18;4.97;;;18.70;58.50;;;;;;4096138;28;20065;-51
2023/05/23 10:47:42;;;;;;;8.65;4.50;;;18.70;58.60;;;;;;4097014;28;20055;-51
2023/05/23 10:50:05;;;;;;;8.35;4.38;;;18.60;58.50;;;;;;4091291;28;20114;-48
2023/05/23 10:52:42;;;;;;;8.15;4.85;;;18.60;58.60;;;;;;4096280;28;20043;-47
2023/05/23 10:55:14;;;;;;;7.68;4.60;;;18.60;58.60;;;;;;4095677;28;20031;-47
2023/05/23 10:57:36;;;;;;;7.90;4.40;;;18.60;58.60;;;;;;4096572;28;20059;-50
2023/05/23 10:59:59;;;;;;;8.48;4.90;;;18.50;58.60;;;;;;4095469;28;20114;-49
2023/05/23 11:02:28;;;;;;;8.00;5.05;;;18.50;58.60;;;;;;4096873;28;20066;-52
2023/05/23 11:05:23;;;;;;;6.38;4.47;;;18.50;58.70;;;;;;4094198;28;20038;-47
2023/05/23 11:07:45;;;;;;;7.38;4.75;;;18.50;58.70;;;;;;4095779;28;20066;-46
2023/05/23 11:10:15;;;;;;;9.80;4.90;;;18.40;58.70;;;;;;4093947;28;20046;-49
2023/05/23 11:12:42;;;;;;;8.48;4.45;;;18.40;58.70;;;;;;4095418;28;20475;-51
2023/05/23 11:15:22;;;;;;;7.70;4.47;;;18.40;59.40;;;;;;4095359;28;20038;-50
2023/05/23 11:17:52;;;;;;;7.13;4.93;;;18.40;58.70;;;;;;4094809;28;20050;-47
2023/05/23 11:20:17;;;;;;;8.93;4.93;;;18.40;58.80;;;;;;4094215;28;20118;-48
2023/05/23 11:22:41;;;;;;;7.93;4.32;;;18.40;58.80;;;;;;4096875;28;20039;-49
2023/05/23 11:25:11;;;;;;;9.73;4.82;;;18.40;58.80;;;;;;4095928;28;20041;-47
2023/05/23 11:27:40;;;;;;;7.28;4.10;;;18.30;58.80;;;;;;4096222;28;20043;-51
2023/05/23 11:30:12;;;;;;;10.02;5.05;;;18.30;58.80;;;;;;4094774;28;20039;-48
2023/05/23 11:32:36;;;;;;;8.02;5.15;;;18.30;58.80;;;;;;4093547;28;20046;-49
2023/05/23 11:35:06;;;;;;;8.50;4.70;;;18.30;58.80;;;;;;4093788;28;20043;-51
2023/05/23 11:37:29;;;;;;;8.50;4.90;;;18.30;58.80;;;;;;4096834;28;20129;-50
2023/05/23 11:39:52;;;;;;;8.18;4.85;;;18.20;58.80;;;;;;4094643;28;20591;-46
2023/05/23 11:42:14;;;;;;;9.48;4.57;;;18.20;58.80;;;;;;4094386;28;20420;-48
2023/05/23 11:44:36;;;;;;;8.70;4.55;;;18.20;58.80;;;;;;4093257;28;20424;-47
2023/05/23 11:47:00;;;;;;;8.10;4.43;;;18.20;58.80;;;;;;4093904;28;20046;-48
2023/05/23 11:49:22;;;;;;;8.75;4.95;;;18.20;58.80;;;;;;4093382;28;20547;-48
2023/05/23 11:51:46;;;;;;;7.07;4.47;;;18.20;58.80;;;;;;4093128;28;20039;-52
2023/05/23 11:54:08;;;;;;;8.32;4.45;;;18.20;58.80;;;;;;4096225;28;20058;-47
2023/05/23 11:56:30;;;;;;;7.00;4.60;;;18.10;58.80;;;;;;4092006;28;20043;-46
2023/05/23 11:58:56;;;;;;;7.05;4.68;;;18.10;59.50;;;;;;4094115;28;20050;-49
2023/05/23 12:01:18;;;;;;;7.70;4.45;;;18.10;58.90;;;;;;4094338;28;20031;-50
2023/05/23 12:03:47;;;;;;;7.15;4.93;;;18.10;58.90;;;;;;4094244;28;20110;-48
2023/05/23 12:06:09;;;;;;;7.55;4.45;;;18.10;59.00;;;;;;4087143;28;20142;-47
2023/05/23 12:08:31;;;;;;;8.75;4.43;;;18.00;58.90;;;;;;4089049;28;20035;-45
2023/05/23 12:11:03;;;;;;;11.15;4.50;;;18.00;58.90;;;;;;4091948;28;20475;-53
2023/05/23 12:13:28;;;;;;;13.55;4.85;;;18.00;59.20;;;;;;4086711;28;20037;-55
2023/05/23 12:15:54;;;;;;;8.75;4.40;;;18.00;59.50;;;;;;4090161;28;20054;-53
2023/05/23 12:18:18;;;;;;;9.95;4.13;;;18.00;59.40;;;;;;4092588;28;20059;-49
2023/05/23 12:20:41;;;;;;;16.52;4.78;;;18.00;59.40;;;;;;4097013;28;20086;-52
2023/05/23 12:23:07;;;;;;;12.65;4.53;;;18.00;59.90;;;;;;4095013;28;20035;-54
2023/05/23 12:25:29;;;;;;;32.42;4.75;;;18.00;60.00;;;;;;4091086;28;20035;-53
2023/05/23 12:27:55;;;;;;;9.65;3.53;;;18.00;59.80;;;;;;4091279;28;20126;-55
2023/05/23 12:30:17;;;;;;;13.52;4.40;;;18.10;59.60;;;;;;4091778;28;20039;-50